Flugplatz Bremen

Bericht für EDDW

vom 25.09. um 09:20 UTC

Wind 12 kt aus 230°

Sichtweite 10 km oder mehr

aufgelockert bewölkt in 1800 ft

Temperatur 13.0°C

Taupunkt 8.0°C

Luftfeuchtigkeit 72%

Luftdruck 996 hPa

keine wesentliche Wetteränderung innerhalb den nächsten 2 Stunden zu erwarten

EDDW 250920Z 23012KT 9999 SCT018 13/08 Q0996 NOSIG

Prognose für EDDW

vom 25.09. um 05:00 UTC

Zwischen 06:00 UTC und 16:00 UTC

Wind 8 kt aus 220°

Sichtweite 10 km oder mehr

aufgelockert bewölkt in 3000 ft


Zwischen 06:00 UTC und 08:00 UTC zeitweise

Wind 15 kt aus 220° in Böen 25 kt

Regenschauer

aufgelockert bewölkt in 1500 ft

aufgebrochene Bewölkung in 2500 ft


Zwischen 16:00 und 18:00 UTC übergehend zu

variable Windrichtung mit 3 kt

Sichtweite 10 km oder mehr

aufgelockert bewölkt in 3000 ft


Am 26.09. zwischen 00:00 UTC und 06:00 UTC zeitweise

Sichtweite 2000 m

Nebelschwaden


Am 26.09. zwischen 02:00 UTC und 06:00 UTC zeitweise mit einer Wahrscheinlichkeit von 30%

Sichtweite 400 m

Nebel

TAF EDDW 250500Z 2506/2606 22008KT 9999 SCT030 TEMPO 2506/2508 22015G25KT SHRA SCT015 BKN025CB BECMG 2516/2518 VRB03KT TEMPO 2600/2606 2000 BCFG PROB30 TEMPO 2602/2606 0400 FG
Impressum